Time;durP1;ratioP1;P1;durP2;ratioP2;P2;SDS_P1;SDS_P2;PMS_P1;PMS_P2;Temp;Humidity;BMP_temperature;BMP_pressure;BME280_temperature;BME280_humidity;BME280_pressure;Samples;Min_cycle;Max_cycle;Signal;HPM_P1;HPM_P2
2023/08/22 00:01:08;;;;;;;6.75;3.33;;;;;;;;;;5047934;28;20033;-71
2023/08/22 00:03:33;;;;;;;5.05;3.03;;;;;;;;;;5033820;28;20033;-72
2023/08/22 00:05:58;;;;;;;6.05;3.83;;;;;;;;;;5030799;28;20017;-72
2023/08/22 00:08:25;;;;;;;8.32;3.53;;;;;;;;;;5044125;28;20028;-72
2023/08/22 00:10:50;;;;;;;9.60;3.80;;;;;;;;;;5039235;28;20025;-72
2023/08/22 00:13:16;;;;;;;4.50;3.22;;;;;;;;;;5033724;28;20049;-72
2023/08/22 00:15:41;;;;;;;5.90;3.20;;;;;;;;;;5046874;28;20029;-69
2023/08/22 00:18:08;;;;;;;5.65;3.50;;;;;;;;;;5036446;28;20787;-72
2023/08/22 00:20:34;;;;;;;6.38;3.53;;;;;;;;;;5045010;28;20490;-71
2023/08/22 00:23:00;;;;;;;6.03;3.53;;;;;;;;;;5045390;28;20053;-72
2023/08/22 00:25:25;;;;;;;7.00;3.60;;;;;;;;;;5031454;28;20062;-72
2023/08/22 00:27:50;;;;;;;4.70;3.40;;;;;;;;;;5045876;28;20079;-72
2023/08/22 00:30:16;;;;;;;9.52;4.22;;;;;;;;;;5048067;28;20029;-72
2023/08/22 00:32:41;;;;;;;6.70;4.22;;;;;;;;;;5032650;28;20125;-71
2023/08/22 00:35:07;;;;;;;9.38;4.75;;;;;;;;;;5041557;28;20087;-72
2023/08/22 00:37:32;;;;;;;8.52;5.07;;;;;;;;;;5050094;28;20048;-72
2023/08/22 00:39:57;;;;;;;8.77;4.93;;;;;;;;;;5046757;28;20242;-71
2023/08/22 00:42:23;;;;;;;9.45;4.85;;;;;;;;;;5049390;28;20462;-72
2023/08/22 00:44:48;;;;;;;8.13;4.80;;;;;;;;;;5046261;28;20033;-71
2023/08/22 00:47:16;;;;;;;7.72;5.00;;;;;;;;;;5048931;28;20102;-72
2023/08/22 00:49:41;;;;;;;8.75;4.97;;;;;;;;;;5050336;28;20033;-71
2023/08/22 00:52:07;;;;;;;6.72;4.85;;;;;;;;;;5046212;28;20041;-73
2023/08/22 00:54:33;;;;;;;9.43;5.25;;;;;;;;;;5051014;28;20385;-73
2023/08/22 00:56:58;;;;;;;10.77;4.82;;;;;;;;;;5046998;28;20036;-72
2023/08/22 00:59:26;;;;;;;7.50;4.70;;;;;;;;;;5039516;28;20056;-71
2023/08/22 01:01:51;;;;;;;8.45;4.65;;;;;;;;;;5036801;28;20037;-71
2023/08/22 01:04:17;;;;;;;8.75;4.82;;;;;;;;;;5037481;28;20512;-72
2023/08/22 01:07:06;;;;;;;8.68;4.95;;;;;;;;;;5037927;28;20162;-72
2023/08/22 01:09:32;;;;;;;7.13;4.68;;;;;;;;;;5037020;28;20497;-72
2023/08/22 01:12:11;;;;;;;8.80;5.10;;;;;;;;;;5040172;28;20089;-72
2023/08/22 01:14:41;;;;;;;7.25;4.95;;;;;;;;;;5049830;28;20496;-69
2023/08/22 01:17:07;;;;;;;7.75;4.70;;;;;;;;;;5047399;28;20037;-71
2023/08/22 01:19:33;;;;;;;11.23;4.20;;;;;;;;;;5048077;28;20036;-71
2023/08/22 01:21:58;;;;;;;7.20;4.20;;;;;;;;;;5049250;28;20707;-71
2023/08/22 01:24:23;;;;;;;8.20;4.68;;;;;;;;;;5048044;28;20141;-72
2023/08/22 01:26:49;;;;;;;6.25;4.20;;;;;;;;;;5040613;28;20436;-72
2023/08/22 01:29:29;;;;;;;7.25;4.50;;;;;;;;;;5035568;28;20039;-71
2023/08/22 01:32:13;;;;;;;8.20;5.30;;;;;;;;;;5036230;28;20049;-72
2023/08/22 01:34:40;;;;;;;8.90;5.10;;;;;;;;;;5048103;28;20028;-69
2023/08/22 01:37:08;;;;;;;7.85;4.93;;;;;;;;;;5050000;28;20037;-72
2023/08/22 01:39:35;;;;;;;10.00;5.45;;;;;;;;;;5044261;28;20527;-72
2023/08/22 01:42:01;;;;;;;9.85;5.53;;;;;;;;;;5052654;28;20041;-71
2023/08/22 01:44:28;;;;;;;8.73;5.78;;;;;;;;;;5047824;28;20043;-72
2023/08/22 01:46:54;;;;;;;8.38;5.82;;;;;;;;;;5037417;28;20466;-72
2023/08/22 01:49:20;;;;;;;9.45;6.10;;;;;;;;;;5051323;28;20025;-72
2023/08/22 01:51:45;;;;;;;10.32;5.25;;;;;;;;;;5036097;28;20059;-73
2023/08/22 01:54:10;;;;;;;11.95;5.13;;;;;;;;;;5051552;28;20456;-72
2023/08/22 01:56:36;;;;;;;7.93;5.25;;;;;;;;;;5054773;28;20039;-72
2023/08/22 01:59:01;;;;;;;8.48;5.35;;;;;;;;;;5047073;28;20116;-73
2023/08/22 02:01:27;;;;;;;8.73;5.40;;;;;;;;;;5044539;28;20043;-72
2023/08/22 02:03:52;;;;;;;8.13;5.40;;;;;;;;;;5046786;28;20455;-71
2023/08/22 02:06:17;;;;;;;7.70;5.88;;;;;;;;;;5056073;28;20025;-72
2023/08/22 02:08:43;;;;;;;7.13;5.70;;;;;;;;;;5047043;28;20474;-73
2023/08/22 02:11:08;;;;;;;9.32;5.78;;;;;;;;;;5044323;28;20035;-72
2023/08/22 02:13:33;;;;;;;9.57;5.00;;;;;;;;;;5055028;28;20031;-72
2023/08/22 02:16:00;;;;;;;9.50;4.88;;;;;;;;;;5051035;28;20044;-71
2023/08/22 02:18:26;;;;;;;8.77;5.13;;;;;;;;;;5052816;28;20478;-72
2023/08/22 02:20:53;;;;;;;8.95;4.65;;;;;;;;;;5049737;28;20037;-73
2023/08/22 02:23:20;;;;;;;7.65;4.95;;;;;;;;;;5042456;28;20037;-72
2023/08/22 02:25:46;;;;;;;10.38;4.90;;;;;;;;;;5051549;28;20032;-72
2023/08/22 02:28:12;;;;;;;8.05;4.90;;;;;;;;;;5033631;28;20030;-73
2023/08/22 02:30:37;;;;;;;9.00;5.25;;;;;;;;;;5033410;28;20044;-71
2023/08/22 02:33:03;;;;;;;10.63;5.30;;;;;;;;;;5038929;28;20077;-73
2023/08/22 02:35:28;;;;;;;8.43;5.35;;;;;;;;;;5045192;28;20036;-73
2023/08/22 02:37:54;;;;;;;7.82;5.13;;;;;;;;;;5051126;28;20036;-73
2023/08/22 02:40:19;;;;;;;7.22;4.70;;;;;;;;;;5047955;28;20029;-72
2023/08/22 02:42:44;;;;;;;9.32;5.00;;;;;;;;;;5037861;28;20035;-72
2023/08/22 02:45:10;;;;;;;7.25;4.70;;;;;;;;;;5053325;28;20048;-72
2023/08/22 02:47:35;;;;;;;6.30;4.72;;;;;;;;;;5038891;28;20080;-73
2023/08/22 02:50:01;;;;;;;10.48;5.00;;;;;;;;;;5034918;28;20041;-71
2023/08/22 02:52:26;;;;;;;9.27;4.75;;;;;;;;;;5046416;28;20040;-72
2023/08/22 02:54:52;;;;;;;10.98;5.45;;;;;;;;;;5054816;28;20040;-72
2023/08/22 02:57:18;;;;;;;8.30;5.10;;;;;;;;;;5049058;28;20416;-72
2023/08/22 02:59:43;;;;;;;7.55;5.15;;;;;;;;;;5051932;28;20089;-70
2023/08/22 03:02:09;;;;;;;8.35;5.32;;;;;;;;;;5052447;28;20040;-72
2023/08/22 03:04:37;;;;;;;7.40;5.32;;;;;;;;;;5046404;28;20040;-73
2023/08/22 03:07:05;;;;;;;9.95;5.80;;;;;;;;;;5050330;28;20120;-71
2023/08/22 03:09:31;;;;;;;8.35;5.07;;;;;;;;;;5036242;28;20065;-72
2023/08/22 03:11:56;;;;;;;6.63;5.20;;;;;;;;;;5031905;28;20072;-72
2023/08/22 03:14:22;;;;;;;7.57;5.25;;;;;;;;;;5055880;28;20064;-71
2023/08/22 03:16:47;;;;;;;9.35;5.63;;;;;;;;;;5071856;28;20047;-71
2023/08/22 03:19:13;;;;;;;10.70;6.00;;;;;;;;;;5055090;28;20032;-71
2023/08/22 03:21:38;;;;;;;8.18;5.97;;;;;;;;;;5042390;28;20026;-69
2023/08/22 03:24:04;;;;;;;9.40;5.75;;;;;;;;;;5033906;28;20099;-71
2023/08/22 03:26:29;;;;;;;9.85;5.88;;;;;;;;;;5042300;28;20083;-71
2023/08/22 03:28:55;;;;;;;10.68;5.97;;;;;;;;;;5033548;28;20112;-71
2023/08/22 03:31:22;;;;;;;9.68;5.63;;;;;;;;;;5045022;28;20037;-71
2023/08/22 03:33:47;;;;;;;9.55;6.00;;;;;;;;;;5044281;28;20061;-71
2023/08/22 03:36:13;;;;;;;10.90;6.40;;;;;;;;;;5043812;28;20072;-71
2023/08/22 03:38:38;;;;;;;12.02;6.05;;;;;;;;;;5040887;28;20466;-69
2023/08/22 03:41:04;;;;;;;10.07;6.03;;;;;;;;;;5035563;28;20033;-71
2023/08/22 03:43:29;;;;;;;9.77;5.70;;;;;;;;;;5051589;28;20052;-71
2023/08/22 03:45:54;;;;;;;8.38;5.72;;;;;;;;;;5047924;28;20029;-72
2023/08/22 03:48:20;;;;;;;10.95;5.90;;;;;;;;;;5031111;28;20128;-73
2023/08/22 03:50:45;;;;;;;10.25;6.18;;;;;;;;;;5037123;28;20451;-72
2023/08/22 03:53:12;;;;;;;10.40;6.53;;;;;;;;;;5038381;28;20474;-72
2023/08/22 03:55:38;;;;;;;8.10;5.63;;;;;;;;;;5050322;28;20040;-69
2023/08/22 03:58:04;;;;;;;8.23;5.68;;;;;;;;;;5049807;28;20529;-72
2023/08/22 04:00:30;;;;;;;8.82;5.82;;;;;;;;;;5037363;28;20047;-70
2023/08/22 04:02:59;;;;;;;7.78;6.03;;;;;;;;;;5046080;28;20389;-70
2023/08/22 04:05:25;;;;;;;10.43;6.55;;;;;;;;;;5037995;28;20044;-72
2023/08/22 04:07:51;;;;;;;11.20;6.70;;;;;;;;;;5039071;28;20029;-71
2023/08/22 04:10:17;;;;;;;10.30;6.78;;;;;;;;;;5039200;28;20032;-71
2023/08/22 04:12:43;;;;;;;9.63;6.18;;;;;;;;;;5042893;28;20029;-71
2023/08/22 04:15:12;;;;;;;13.50;6.97;;;;;;;;;;5031732;28;20022;-71
2023/08/22 04:17:41;;;;;;;9.23;6.38;;;;;;;;;;5036143;28;20052;-69
2023/08/22 04:20:07;;;;;;;10.68;6.55;;;;;;;;;;5050662;28;20470;-71
2023/08/22 04:22:34;;;;;;;11.75;6.20;;;;;;;;;;5038091;28;20120;-72
2023/08/22 04:24:59;;;;;;;8.70;6.32;;;;;;;;;;5038142;28;20037;-73
2023/08/22 04:27:25;;;;;;;10.77;6.40;;;;;;;;;;5046491;28;20038;-71
2023/08/22 04:29:50;;;;;;;11.23;6.25;;;;;;;;;;5031572;28;20105;-72
2023/08/22 04:32:15;;;;;;;11.13;7.20;;;;;;;;;;5039336;28;20435;-73
2023/08/22 04:34:41;;;;;;;11.65;6.35;;;;;;;;;;5045411;28;20036;-70
2023/08/22 04:37:06;;;;;;;10.30;6.82;;;;;;;;;;5050272;28;20041;-73
2023/08/22 04:39:31;;;;;;;9.73;6.18;;;;;;;;;;5049635;28;20078;-73
2023/08/22 04:41:57;;;;;;;12.98;6.20;;;;;;;;;;5031848;28;20155;-72
2023/08/22 04:44:22;;;;;;;8.63;5.97;;;;;;;;;;5037844;28;20082;-72
2023/08/22 04:46:47;;;;;;;9.25;6.18;;;;;;;;;;5047417;28;20060;-72
2023/08/22 04:49:13;;;;;;;10.82;5.85;;;;;;;;;;5036783;28;20126;-72
2023/08/22 04:51:38;;;;;;;8.32;6.10;;;;;;;;;;5037504;28;20476;-69
2023/08/22 04:54:04;;;;;;;9.35;5.90;;;;;;;;;;5044827;28;20033;-71
2023/08/22 04:56:29;;;;;;;8.73;5.90;;;;;;;;;;5040994;28;20559;-71
2023/08/22 04:58:55;;;;;;;9.65;5.50;;;;;;;;;;5049092;28;20025;-73
2023/08/22 05:01:20;;;;;;;9.20;5.85;;;;;;;;;;5046067;28;20040;-73
2023/08/22 05:03:46;;;;;;;8.00;5.63;;;;;;;;;;5046457;28;20028;-73
2023/08/22 05:06:12;;;;;;;10.43;6.07;;;;;;;;;;5049827;28;20033;-73
2023/08/22 05:08:38;;;;;;;7.97;5.53;;;;;;;;;;5048181;28;20182;-70
2023/08/22 05:11:04;;;;;;;10.05;5.97;;;;;;;;;;5050475;28;20576;-71
2023/08/22 05:13:29;;;;;;;10.13;6.28;;;;;;;;;;5035368;28;20032;-72
2023/08/22 05:15:54;;;;;;;14.85;7.20;;;;;;;;;;5054067;28;20381;-72
2023/08/22 05:18:20;;;;;;;9.80;6.60;;;;;;;;;;5053741;28;20033;-72
2023/08/22 05:20:45;;;;;;;9.95;6.70;;;;;;;;;;5053925;28;20393;-71
2023/08/22 05:23:10;;;;;;;11.50;6.72;;;;;;;;;;5051937;28;20064;-71
2023/08/22 05:25:36;;;;;;;13.27;6.50;;;;;;;;;;5036524;28;20492;-71
2023/08/22 05:28:01;;;;;;;9.80;6.90;;;;;;;;;;5034174;28;20120;-73
2023/08/22 05:30:27;;;;;;;11.27;6.50;;;;;;;;;;5042494;28;20039;-72
2023/08/22 05:32:52;;;;;;;10.75;6.93;;;;;;;;;;5050872;28;20044;-72
2023/08/22 05:35:18;;;;;;;11.43;6.80;;;;;;;;;;5039394;28;20029;-73
2023/08/22 05:37:43;;;;;;;12.63;6.63;;;;;;;;;;5052069;28;20040;-73
2023/08/22 05:40:09;;;;;;;12.30;7.45;;;;;;;;;;5053437;28;20029;-72
2023/08/22 05:42:35;;;;;;;11.05;7.50;;;;;;;;;;5054082;28;20040;-72
2023/08/22 05:45:01;;;;;;;11.35;7.63;;;;;;;;;;5036621;28;20052;-71
2023/08/22 05:47:26;;;;;;;13.45;8.27;;;;;;;;;;5034928;28;20040;-72
2023/08/22 05:49:52;;;;;;;15.75;8.55;;;;;;;;;;5032767;28;20513;-72
2023/08/22 05:52:18;;;;;;;14.13;8.43;;;;;;;;;;5037477;28;20029;-71
2023/08/22 05:54:44;;;;;;;12.02;7.97;;;;;;;;;;5047108;28;20056;-72
2023/08/22 05:57:09;;;;;;;12.52;8.07;;;;;;;;;;5054222;28;20462;-73
2023/08/22 05:59:35;;;;;;;13.23;8.90;;;;;;;;;;5034136;28;20466;-73
2023/08/22 06:02:00;;;;;;;12.27;8.55;;;;;;;;;;5054100;28;20047;-73
2023/08/22 06:04:25;;;;;;;15.10;8.60;;;;;;;;;;5052269;28;20406;-72
2023/08/22 06:06:51;;;;;;;11.57;8.43;;;;;;;;;;5053555;28;20585;-73
2023/08/22 06:09:16;;;;;;;14.63;8.93;;;;;;;;;;5054373;28;20032;-73
2023/08/22 06:11:42;;;;;;;14.13;9.38;;;;;;;;;;5053302;28;20037;-72
2023/08/22 06:14:07;;;;;;;17.13;10.38;;;;;;;;;;5053334;28;20033;-72
2023/08/22 06:16:32;;;;;;;14.60;9.85;;;;;;;;;;5051390;28;20029;-73
2023/08/22 06:18:58;;;;;;;15.20;10.25;;;;;;;;;;5053404;28;20108;-72
2023/08/22 06:21:23;;;;;;;16.98;11.32;;;;;;;;;;5051802;28;20442;-72
2023/08/22 06:23:49;;;;;;;16.50;10.80;;;;;;;;;;5051746;28;20039;-70
2023/08/22 06:26:14;;;;;;;19.27;10.32;;;;;;;;;;5053467;28;20037;-71
2023/08/22 06:28:40;;;;;;;15.82;10.40;;;;;;;;;;5053032;28;20040;-69
2023/08/22 06:31:06;;;;;;;15.50;9.88;;;;;;;;;;5048621;28;20044;-73
2023/08/22 06:33:31;;;;;;;16.95;10.48;;;;;;;;;;5047150;28;20082;-72
2023/08/22 06:35:57;;;;;;;15.13;9.35;;;;;;;;;;5052200;28;20254;-73
2023/08/22 06:38:22;;;;;;;13.70;9.95;;;;;;;;;;5053470;28;20057;-70
2023/08/22 06:40:48;;;;;;;18.83;10.38;;;;;;;;;;5047743;28;20060;-72
2023/08/22 06:43:14;;;;;;;13.73;9.60;;;;;;;;;;5053779;28;20397;-72
2023/08/22 06:45:40;;;;;;;18.20;9.75;;;;;;;;;;5052867;28;20061;-70
2023/08/22 06:48:05;;;;;;;15.25;9.60;;;;;;;;;;5052989;28;20496;-74
2023/08/22 06:50:31;;;;;;;14.63;9.10;;;;;;;;;;5050398;28;20021;-72
2023/08/22 06:52:56;;;;;;;14.93;9.55;;;;;;;;;;5049550;28;20485;-73
2023/08/22 06:55:22;;;;;;;17.40;8.98;;;;;;;;;;5053283;28;20029;-69
2023/08/22 06:57:47;;;;;;;15.68;9.52;;;;;;;;;;5052463;28;20102;-73
2023/08/22 07:00:14;;;;;;;15.35;9.27;;;;;;;;;;5050580;28;20025;-77
2023/08/22 07:02:41;;;;;;;16.85;8.80;;;;;;;;;;5052673;28;20037;-72
2023/08/22 07:05:08;;;;;;;17.77;8.27;;;;;;;;;;5053040;28;20037;-75
2023/08/22 07:07:33;;;;;;;15.20;8.00;;;;;;;;;;5050590;28;20025;-75
2023/08/22 07:09:59;;;;;;;14.88;7.68;;;;;;;;;;5052122;28;20021;-73
2023/08/22 07:12:24;;;;;;;12.38;7.72;;;;;;;;;;5053107;28;20128;-75
2023/08/22 07:14:50;;;;;;;17.08;7.07;;;;;;;;;;5051849;28;20033;-75
2023/08/22 07:17:15;;;;;;;11.38;6.88;;;;;;;;;;5053312;28;20116;-76
2023/08/22 07:19:40;;;;;;;12.13;7.13;;;;;;;;;;5052358;28;20082;-71
2023/08/22 07:22:06;;;;;;;14.38;6.63;;;;;;;;;;5052059;28;20032;-73
2023/08/22 07:24:31;;;;;;;14.07;7.45;;;;;;;;;;5051488;28;20083;-73
2023/08/22 07:26:56;;;;;;;12.23;6.78;;;;;;;;;;5051501;28;20857;-75
2023/08/22 07:29:22;;;;;;;10.30;6.50;;;;;;;;;;5050786;28;20037;-74
2023/08/22 07:31:47;;;;;;;11.88;6.40;;;;;;;;;;5051688;28;20141;-74
2023/08/22 07:34:13;;;;;;;10.77;6.32;;;;;;;;;;5052620;28;20028;-76
2023/08/22 07:36:38;;;;;;;12.75;6.80;;;;;;;;;;5051933;28;20078;-71
2023/08/22 07:39:03;;;;;;;11.52;7.10;;;;;;;;;;5051877;28;20485;-73
2023/08/22 07:41:29;;;;;;;11.43;6.45;;;;;;;;;;5052462;28;20108;-74
2023/08/22 07:43:54;;;;;;;9.32;6.47;;;;;;;;;;5050739;28;20394;-74
2023/08/22 07:46:20;;;;;;;11.40;6.50;;;;;;;;;;5052271;28;20032;-67
2023/08/22 07:48:45;;;;;;;12.60;5.85;;;;;;;;;;5051424;28;20029;-74
2023/08/22 07:51:11;;;;;;;10.02;6.05;;;;;;;;;;5050910;28;20064;-76
2023/08/22 07:53:36;;;;;;;10.32;5.97;;;;;;;;;;5052333;28;20025;-74
2023/08/22 07:56:01;;;;;;;10.05;5.40;;;;;;;;;;5051352;28;20029;-74
2023/08/22 07:58:27;;;;;;;9.80;5.90;;;;;;;;;;5052868;28;20036;-76
2023/08/22 08:00:52;;;;;;;12.25;5.57;;;;;;;;;;5060873;28;20033;-74
2023/08/22 08:03:18;;;;;;;7.88;4.97;;;;;;;;;;5052482;28;20501;-76
2023/08/22 08:05:43;;;;;;;9.05;5.53;;;;;;;;;;5061623;28;20039;-72
2023/08/22 08:08:08;;;;;;;10.20;4.97;;;;;;;;;;5064009;28;20488;-70
2023/08/22 08:10:36;;;;;;;10.60;5.40;;;;;;;;;;5059170;28;20025;-75
2023/08/22 08:13:01;;;;;;;7.78;4.55;;;;;;;;;;5056523;28;20031;-73
2023/08/22 08:15:27;;;;;;;7.68;4.18;;;;;;;;;;5052922;28;20411;-71
2023/08/22 08:17:52;;;;;;;7.53;3.53;;;;;;;;;;5048923;28;20028;-71
2023/08/22 08:20:18;;;;;;;7.72;3.90;;;;;;;;;;5051035;28;20386;-72
2023/08/22 08:22:43;;;;;;;7.97;3.50;;;;;;;;;;5051067;28;20126;-70
2023/08/22 08:25:09;;;;;;;8.38;3.13;;;;;;;;;;5052035;28;20029;-72
2023/08/22 08:27:34;;;;;;;6.55;3.15;;;;;;;;;;5051641;28;20107;-73
2023/08/22 08:29:59;;;;;;;6.57;2.63;;;;;;;;;;5050512;28;20027;-74
2023/08/22 08:32:25;;;;;;;7.43;3.00;;;;;;;;;;5050132;28;20063;-76
2023/08/22 08:34:51;;;;;;;9.52;3.30;;;;;;;;;;5050652;28;20033;-73
2023/08/22 08:37:16;;;;;;;6.95;3.00;;;;;;;;;;5046120;28;20057;-74
2023/08/22 08:39:42;;;;;;;5.95;3.63;;;;;;;;;;5049601;28;20033;-73
2023/08/22 08:42:14;;;;;;;5.35;2.95;;;;;;;;;;5052007;28;20037;-74
2023/08/22 08:44:40;;;;;;;6.22;3.35;;;;;;;;;;5049724;28;20116;-71
2023/08/22 08:47:10;;;;;;;6.70;3.80;;;;;;;;;;5050066;28;20032;-73
2023/08/22 08:49:36;;;;;;;6.90;3.40;;;;;;;;;;5054642;28;20033;-74
2023/08/22 08:52:03;;;;;;;8.60;3.58;;;;;;;;;;5035619;28;20037;-72
2023/08/22 08:54:31;;;;;;;7.70;3.28;;;;;;;;;;5039932;28;20033;-77
2023/08/22 08:56:57;;;;;;;7.75;3.20;;;;;;;;;;5054657;28;20590;-75
2023/08/22 08:59:23;;;;;;;8.77;3.13;;;;;;;;;;5055672;28;20024;-73
2023/08/22 09:01:50;;;;;;;9.30;3.00;;;;;;;;;;5054713;28;20125;-78
2023/08/22 09:04:15;;;;;;;8.40;3.17;;;;;;;;;;5055274;28;20505;-75
2023/08/22 09:06:41;;;;;;;9.82;3.50;;;;;;;;;;5044006;28;20072;-69
2023/08/22 09:09:08;;;;;;;5.78;2.92;;;;;;;;;;5043835;28;20326;-74
2023/08/22 09:11:35;;;;;;;7.03;3.40;;;;;;;;;;5055350;28;20094;-73
2023/08/22 09:14:00;;;;;;;6.38;3.00;;;;;;;;;;5054385;28;20102;-77
2023/08/22 09:16:27;;;;;;;6.80;3.40;;;;;;;;;;5055325;28;20381;-75
2023/08/22 09:18:58;;;;;;;7.03;2.70;;;;;;;;;;5054285;28;20033;-75
2023/08/22 09:21:24;;;;;;;8.52;2.70;;;;;;;;;;5055140;28;20067;-74
2023/08/22 09:23:49;;;;;;;7.55;3.22;;;;;;;;;;5053505;28;20033;-73
2023/08/22 09:26:23;;;;;;;8.10;3.10;;;;;;;;;;5054482;28;20029;-72
